sensor_id;sensor_type;location;lat;lon;timestamp;temperature;humidity
25536;DHT22;13431;51.352;6.412;2022-12-19T00:00:10;0.10;99.90
25536;DHT22;13431;51.352;6.412;2022-12-19T00:02:41;0.10;99.90
25536;DHT22;13431;51.352;6.412;2022-12-19T00:05:09;0.10;99.90
25536;DHT22;13431;51.352;6.412;2022-12-19T00:07:37;0.10;99.90
25536;DHT22;13431;51.352;6.412;2022-12-19T00:10:05;0.10;99.90
25536;DHT22;13431;51.352;6.412;2022-12-19T00:12:32;0.20;99.90
25536;DHT22;13431;51.352;6.412;2022-12-19T00:15:00;0.10;99.90
25536;DHT22;13431;51.352;6.412;2022-12-19T00:17:28;0.20;99.90
25536;DHT22;13431;51.352;6.412;2022-12-19T00:19:55;0.20;99.90
25536;DHT22;13431;51.352;6.412;2022-12-19T00:22:23;0.20;99.90
25536;DHT22;13431;51.352;6.412;2022-12-19T00:24:50;0.20;99.90
25536;DHT22;13431;51.352;6.412;2022-12-19T00:27:18;0.20;99.90
25536;DHT22;13431;51.352;6.412;2022-12-19T00:29:45;0.30;99.90
25536;DHT22;13431;51.352;6.412;2022-12-19T00:32:14;0.30;99.90
25536;DHT22;13431;51.352;6.412;2022-12-19T00:34:42;0.30;99.90
25536;DHT22;13431;51.352;6.412;2022-12-19T00:37:10;0.30;99.90
25536;DHT22;13431;51.352;6.412;2022-12-19T00:39:37;0.30;99.90
25536;DHT22;13431;51.352;6.412;2022-12-19T00:42:05;0.30;99.90
25536;DHT22;13431;51.352;6.412;2022-12-19T00:44:32;0.40;99.90
25536;DHT22;13431;51.352;6.412;2022-12-19T00:47:00;0.30;99.90
25536;DHT22;13431;51.352;6.412;2022-12-19T00:49:27;0.40;99.90
25536;DHT22;13431;51.352;6.412;2022-12-19T00:51:54;0.40;99.90
25536;DHT22;13431;51.352;6.412;2022-12-19T00:54:24;0.40;99.90
25536;DHT22;13431;51.352;6.412;2022-12-19T00:56:51;0.40;99.90
25536;DHT22;13431;51.352;6.412;2022-12-19T00:59:18;0.40;99.90
25536;DHT22;13431;51.352;6.412;2022-12-19T01:01:55;0.40;99.90
25536;DHT22;13431;51.352;6.412;2022-12-19T01:04:24;0.50;99.90
25536;DHT22;13431;51.352;6.412;2022-12-19T01:06:57;0.50;99.90
25536;DHT22;13431;51.352;6.412;2022-12-19T01:09:31;0.50;99.90
25536;DHT22;13431;51.352;6.412;2022-12-19T01:11:59;0.50;99.90
25536;DHT22;13431;51.352;6.412;2022-12-19T01:14:47;0.50;99.90
25536;DHT22;13431;51.352;6.412;2022-12-19T01:17:14;0.50;99.90
25536;DHT22;13431;51.352;6.412;2022-12-19T01:19:41;0.60;99.90
25536;DHT22;13431;51.352;6.412;2022-12-19T01:22:13;0.60;99.90
25536;DHT22;13431;51.352;6.412;2022-12-19T01:24:41;0.50;99.90
25536;DHT22;13431;51.352;6.412;2022-12-19T01:27:08;0.60;99.90
25536;DHT22;13431;51.352;6.412;2022-12-19T01:29:38;0.60;99.90
25536;DHT22;13431;51.352;6.412;2022-12-19T01:32:20;0.60;99.90
25536;DHT22;13431;51.352;6.412;2022-12-19T01:34:47;0.60;99.90
25536;DHT22;13431;51.352;6.412;2022-12-19T01:37:18;0.60;99.90
25536;DHT22;13431;51.352;6.412;2022-12-19T01:39:46;0.60;99.90
25536;DHT22;13431;51.352;6.412;2022-12-19T01:42:16;0.70;99.90
25536;DHT22;13431;51.352;6.412;2022-12-19T01:52:52;0.70;99.90
25536;DHT22;13431;51.352;6.412;2022-12-19T01:55:20;0.70;99.90
25536;DHT22;13431;51.352;6.412;2022-12-19T01:57:50;0.70;99.90
25536;DHT22;13431;51.352;6.412;2022-12-19T02:00:17;0.70;99.90
25536;DHT22;13431;51.352;6.412;2022-12-19T02:02:56;0.70;99.90
25536;DHT22;13431;51.352;6.412;2022-12-19T02:05:25;0.70;99.90
25536;DHT22;13431;51.352;6.412;2022-12-19T02:07:53;0.70;99.90
25536;DHT22;13431;51.352;6.412;2022-12-19T02:10:20;0.80;99.90
25536;DHT22;13431;51.352;6.412;2022-12-19T02:12:48;0.80;99.90
25536;DHT22;13431;51.352;6.412;2022-12-19T02:15:17;0.80;99.90
25536;DHT22;13431;51.352;6.412;2022-12-19T02:18:13;0.80;99.90
25536;DHT22;13431;51.352;6.412;2022-12-19T02:21:04;0.90;99.90
25536;DHT22;13431;51.352;6.412;2022-12-19T02:24:14;0.90;99.90
25536;DHT22;13431;51.352;6.412;2022-12-19T02:32:20;1.00;99.90
25536;DHT22;13431;51.352;6.412;2022-12-19T02:40:44;1.20;99.90
25536;DHT22;13431;51.352;6.412;2022-12-19T02:43:17;1.20;99.90
25536;DHT22;13431;51.352;6.412;2022-12-19T02:45:46;1.30;99.90
25536;DHT22;13431;51.352;6.412;2022-12-19T02:48:14;1.20;99.90
25536;DHT22;13431;51.352;6.412;2022-12-19T02:50:46;1.20;99.90
25536;DHT22;13431;51.352;6.412;2022-12-19T02:53:17;1.30;99.90
25536;DHT22;13431;51.352;6.412;2022-12-19T03:01:47;1.20;99.90
25536;DHT22;13431;51.352;6.412;2022-12-19T03:07:17;1.30;99.90
25536;DHT22;13431;51.352;6.412;2022-12-19T03:09:55;1.30;99.90
25536;DHT22;13431;51.352;6.412;2022-12-19T03:12:33;1.30;99.90
25536;DHT22;13431;51.352;6.412;2022-12-19T03:15:03;1.30;99.90
25536;DHT22;13431;51.352;6.412;2022-12-19T03:17:35;1.30;99.90
25536;DHT22;13431;51.352;6.412;2022-12-19T03:20:12;1.30;99.90
25536;DHT22;13431;51.352;6.412;2022-12-19T03:22:42;1.30;99.90
25536;DHT22;13431;51.352;6.412;2022-12-19T03:25:09;1.30;99.90
25536;DHT22;13431;51.352;6.412;2022-12-19T03:27:38;1.30;99.90
25536;DHT22;13431;51.352;6.412;2022-12-19T03:30:09;1.40;99.90
25536;DHT22;13431;51.352;6.412;2022-12-19T03:32:38;1.40;99.90
25536;DHT22;13431;51.352;6.412;2022-12-19T03:35:10;1.40;99.90
25536;DHT22;13431;51.352;6.412;2022-12-19T03:37:47;1.40;99.90
25536;DHT22;13431;51.352;6.412;2022-12-19T03:40:17;1.50;99.90
25536;DHT22;13431;51.352;6.412;2022-12-19T03:42:46;1.50;99.90
25536;DHT22;13431;51.352;6.412;2022-12-19T03:48:23;1.50;99.90
25536;DHT22;13431;51.352;6.412;2022-12-19T03:50:59;1.50;99.90
25536;DHT22;13431;51.352;6.412;2022-12-19T03:59:01;1.60;99.90
25536;DHT22;13431;51.352;6.412;2022-12-19T04:01:32;1.60;99.90
25536;DHT22;13431;51.352;6.412;2022-12-19T04:04:01;1.60;99.90
25536;DHT22;13431;51.352;6.412;2022-12-19T04:06:30;1.60;99.90
25536;DHT22;13431;51.352;6.412;2022-12-19T04:08:59;1.60;99.90
25536;DHT22;13431;51.352;6.412;2022-12-19T04:11:31;1.60;99.90
25536;DHT22;13431;51.352;6.412;2022-12-19T04:14:05;1.70;99.90
25536;DHT22;13431;51.352;6.412;2022-12-19T04:19:16;1.70;99.90
25536;DHT22;13431;51.352;6.412;2022-12-19T04:22:00;1.80;99.90
25536;DHT22;13431;51.352;6.412;2022-12-19T04:24:32;1.70;99.90
25536;DHT22;13431;51.352;6.412;2022-12-19T04:27:02;1.80;99.90
25536;DHT22;13431;51.352;6.412;2022-12-19T04:29:33;1.80;99.90
25536;DHT22;13431;51.352;6.412;2022-12-19T04:32:02;1.80;99.90
25536;DHT22;13431;51.352;6.412;2022-12-19T04:34:31;1.80;99.90
25536;DHT22;13431;51.352;6.412;2022-12-19T04:37:02;1.80;99.90
25536;DHT22;13431;51.352;6.412;2022-12-19T04:39:30;1.90;99.90
25536;DHT22;13431;51.352;6.412;2022-12-19T04:41:57;1.90;99.90
25536;DHT22;13431;51.352;6.412;2022-12-19T04:44:25;1.80;99.90
25536;DHT22;13431;51.352;6.412;2022-12-19T04:46:52;1.90;99.90
25536;DHT22;13431;51.352;6.412;2022-12-19T04:49:20;1.90;99.90
25536;DHT22;13431;51.352;6.412;2022-12-19T04:51:47;2.00;99.90
25536;DHT22;13431;51.352;6.412;2022-12-19T04:54:15;2.10;99.90
25536;DHT22;13431;51.352;6.412;2022-12-19T04:56:42;2.10;99.90
25536;DHT22;13431;51.352;6.412;2022-12-19T04:59:10;2.10;99.90
25536;DHT22;13431;51.352;6.412;2022-12-19T05:01:37;2.20;99.90
25536;DHT22;13431;51.352;6.412;2022-12-19T05:04:05;2.10;99.90
25536;DHT22;13431;51.352;6.412;2022-12-19T05:06:32;2.20;99.90
25536;DHT22;13431;51.352;6.412;2022-12-19T05:08:59;2.20;99.90
25536;DHT22;13431;51.352;6.412;2022-12-19T05:11:27;2.20;99.90
25536;DHT22;13431;51.352;6.412;2022-12-19T05:13:54;2.20;99.90
25536;DHT22;13431;51.352;6.412;2022-12-19T05:16:22;2.30;99.90
25536;DHT22;13431;51.352;6.412;2022-12-19T05:18:49;2.30;99.90
25536;DHT22;13431;51.352;6.412;2022-12-19T05:21:16;2.30;99.90
25536;DHT22;13431;51.352;6.412;2022-12-19T05:23:44;2.30;99.90
25536;DHT22;13431;51.352;6.412;2022-12-19T05:26:11;2.30;99.90
25536;DHT22;13431;51.352;6.412;2022-12-19T05:28:39;2.40;99.90
25536;DHT22;13431;51.352;6.412;2022-12-19T05:31:09;2.40;99.90
25536;DHT22;13431;51.352;6.412;2022-12-19T05:33:37;2.50;99.90
25536;DHT22;13431;51.352;6.412;2022-12-19T05:36:05;2.50;99.90
25536;DHT22;13431;51.352;6.412;2022-12-19T05:38:32;2.50;99.90
25536;DHT22;13431;51.352;6.412;2022-12-19T05:41:15;2.50;99.90
25536;DHT22;13431;51.352;6.412;2022-12-19T05:43:48;2.50;99.90
25536;DHT22;13431;51.352;6.412;2022-12-19T05:46:16;2.60;99.90
25536;DHT22;13431;51.352;6.412;2022-12-19T05:48:43;2.70;99.90
25536;DHT22;13431;51.352;6.412;2022-12-19T05:51:11;2.80;99.90
25536;DHT22;13431;51.352;6.412;2022-12-19T05:53:39;2.90;99.90
25536;DHT22;13431;51.352;6.412;2022-12-19T05:56:15;2.90;99.90
25536;DHT22;13431;51.352;6.412;2022-12-19T05:58:44;2.90;99.90
25536;DHT22;13431;51.352;6.412;2022-12-19T06:01:15;3.00;99.90
25536;DHT22;13431;51.352;6.412;2022-12-19T06:03:43;3.00;99.90
25536;DHT22;13431;51.352;6.412;2022-12-19T06:06:13;2.90;99.90
25536;DHT22;13431;51.352;6.412;2022-12-19T06:08:41;2.80;99.90
25536;DHT22;13431;51.352;6.412;2022-12-19T06:11:09;2.90;99.90
25536;DHT22;13431;51.352;6.412;2022-12-19T06:13:37;2.80;99.90
25536;DHT22;13431;51.352;6.412;2022-12-19T06:16:11;2.90;99.90
25536;DHT22;13431;51.352;6.412;2022-12-19T06:18:39;2.90;99.90
25536;DHT22;13431;51.352;6.412;2022-12-19T06:23:41;2.90;99.90
25536;DHT22;13431;51.352;6.412;2022-12-19T06:26:11;2.90;99.90
25536;DHT22;13431;51.352;6.412;2022-12-19T06:28:45;3.00;99.90
25536;DHT22;13431;51.352;6.412;2022-12-19T06:31:14;3.00;99.90
25536;DHT22;13431;51.352;6.412;2022-12-19T06:33:41;3.00;99.90
25536;DHT22;13431;51.352;6.412;2022-12-19T06:36:20;3.10;99.90
25536;DHT22;13431;51.352;6.412;2022-12-19T06:38:49;3.10;99.90
25536;DHT22;13431;51.352;6.412;2022-12-19T06:41:17;3.10;99.90
25536;DHT22;13431;51.352;6.412;2022-12-19T06:44:08;3.10;99.90
25536;DHT22;13431;51.352;6.412;2022-12-19T06:46:38;3.20;99.90
25536;DHT22;13431;51.352;6.412;2022-12-19T06:49:06;3.20;99.90
25536;DHT22;13431;51.352;6.412;2022-12-19T06:51:34;3.20;99.90
25536;DHT22;13431;51.352;6.412;2022-12-19T06:54:02;3.20;99.90
25536;DHT22;13431;51.352;6.412;2022-12-19T06:56:37;3.20;99.90
25536;DHT22;13431;51.352;6.412;2022-12-19T06:59:06;3.20;99.90
25536;DHT22;13431;51.352;6.412;2022-12-19T07:04:01;3.30;99.90
25536;DHT22;13431;51.352;6.412;2022-12-19T07:06:28;3.30;99.90
25536;DHT22;13431;51.352;6.412;2022-12-19T07:08:55;3.30;99.90
25536;DHT22;13431;51.352;6.412;2022-12-19T07:11:23;3.30;99.90
25536;DHT22;13431;51.352;6.412;2022-12-19T07:13:50;3.30;99.90
25536;DHT22;13431;51.352;6.412;2022-12-19T07:16:18;3.30;99.90
25536;DHT22;13431;51.352;6.412;2022-12-19T07:18:46;3.30;99.90
25536;DHT22;13431;51.352;6.412;2022-12-19T07:21:13;3.40;99.90
25536;DHT22;13431;51.352;6.412;2022-12-19T07:23:41;3.40;99.90
25536;DHT22;13431;51.352;6.412;2022-12-19T07:26:08;3.40;99.90
25536;DHT22;13431;51.352;6.412;2022-12-19T07:28:36;3.50;99.90
25536;DHT22;13431;51.352;6.412;2022-12-19T07:31:04;3.50;99.90
25536;DHT22;13431;51.352;6.412;2022-12-19T07:33:31;3.50;99.90
25536;DHT22;13431;51.352;6.412;2022-12-19T07:35:59;3.50;99.90
25536;DHT22;13431;51.352;6.412;2022-12-19T07:38:26;3.50;99.90
25536;DHT22;13431;51.352;6.412;2022-12-19T07:40:54;3.50;99.90
25536;DHT22;13431;51.352;6.412;2022-12-19T07:43:21;3.50;99.90
25536;DHT22;13431;51.352;6.412;2022-12-19T07:45:53;3.50;99.90
25536;DHT22;13431;51.352;6.412;2022-12-19T07:48:21;3.50;99.90
25536;DHT22;13431;51.352;6.412;2022-12-19T07:50:49;3.60;99.90
25536;DHT22;13431;51.352;6.412;2022-12-19T07:53:16;3.60;99.90
25536;DHT22;13431;51.352;6.412;2022-12-19T07:55:44;3.60;99.90
25536;DHT22;13431;51.352;6.412;2022-12-19T07:58:14;3.60;99.90
25536;DHT22;13431;51.352;6.412;2022-12-19T08:00:41;3.60;99.90
25536;DHT22;13431;51.352;6.412;2022-12-19T08:03:09;3.70;99.90
25536;DHT22;13431;51.352;6.412;2022-12-19T08:05:37;3.70;99.90
25536;DHT22;13431;51.352;6.412;2022-12-19T08:08:05;3.70;99.90
25536;DHT22;13431;51.352;6.412;2022-12-19T08:10:32;3.80;99.90
25536;DHT22;13431;51.352;6.412;2022-12-19T08:12:59;3.80;99.90
25536;DHT22;13431;51.352;6.412;2022-12-19T08:15:26;3.80;99.90
25536;DHT22;13431;51.352;6.412;2022-12-19T08:17:54;3.80;99.90
25536;DHT22;13431;51.352;6.412;2022-12-19T08:20:22;3.90;99.90
25536;DHT22;13431;51.352;6.412;2022-12-19T08:22:49;3.90;99.90
25536;DHT22;13431;51.352;6.412;2022-12-19T08:25:17;3.90;99.90
25536;DHT22;13431;51.352;6.412;2022-12-19T08:27:44;3.90;99.90
25536;DHT22;13431;51.352;6.412;2022-12-19T08:30:12;4.00;99.90
25536;DHT22;13431;51.352;6.412;2022-12-19T08:32:40;4.00;99.90
25536;DHT22;13431;51.352;6.412;2022-12-19T08:35:07;4.10;99.90
25536;DHT22;13431;51.352;6.412;2022-12-19T08:37:35;4.00;99.90
25536;DHT22;13431;51.352;6.412;2022-12-19T08:40:02;4.10;99.90
25536;DHT22;13431;51.352;6.412;2022-12-19T08:42:30;4.10;99.90
25536;DHT22;13431;51.352;6.412;2022-12-19T08:44:58;4.20;99.90
25536;DHT22;13431;51.352;6.412;2022-12-19T08:47:25;4.20;99.90
25536;DHT22;13431;51.352;6.412;2022-12-19T08:49:53;4.20;99.90
25536;DHT22;13431;51.352;6.412;2022-12-19T08:52:20;4.20;99.90
25536;DHT22;13431;51.352;6.412;2022-12-19T08:54:47;4.30;99.90
25536;DHT22;13431;51.352;6.412;2022-12-19T08:57:15;4.30;99.90
25536;DHT22;13431;51.352;6.412;2022-12-19T08:59:42;4.30;99.90
25536;DHT22;13431;51.352;6.412;2022-12-19T09:02:10;4.40;99.90
25536;DHT22;13431;51.352;6.412;2022-12-19T09:04:38;4.40;99.90
25536;DHT22;13431;51.352;6.412;2022-12-19T09:07:25;4.40;99.90
25536;DHT22;13431;51.352;6.412;2022-12-19T09:09:53;4.40;99.90
25536;DHT22;13431;51.352;6.412;2022-12-19T09:12:20;4.50;99.90
25536;DHT22;13431;51.352;6.412;2022-12-19T09:14:48;4.50;99.90
25536;DHT22;13431;51.352;6.412;2022-12-19T09:17:16;4.60;99.90
25536;DHT22;13431;51.352;6.412;2022-12-19T09:19:44;4.60;99.90
25536;DHT22;13431;51.352;6.412;2022-12-19T09:22:14;4.60;99.90
25536;DHT22;13431;51.352;6.412;2022-12-19T09:24:42;4.60;99.90
25536;DHT22;13431;51.352;6.412;2022-12-19T09:27:10;4.70;99.90
25536;DHT22;13431;51.352;6.412;2022-12-19T09:29:37;4.70;99.90
25536;DHT22;13431;51.352;6.412;2022-12-19T09:32:05;4.70;99.90
25536;DHT22;13431;51.352;6.412;2022-12-19T09:34:32;4.90;99.90
25536;DHT22;13431;51.352;6.412;2022-12-19T09:37:09;4.80;99.90
25536;DHT22;13431;51.352;6.412;2022-12-19T09:39:45;4.90;99.90
25536;DHT22;13431;51.352;6.412;2022-12-19T09:45:32;5.00;99.90
25536;DHT22;13431;51.352;6.412;2022-12-19T09:48:02;5.10;99.90
25536;DHT22;13431;51.352;6.412;2022-12-19T09:50:59;5.10;99.90
25536;DHT22;13431;51.352;6.412;2022-12-19T09:53:54;5.20;99.90
25536;DHT22;13431;51.352;6.412;2022-12-19T09:56:29;5.20;99.90
25536;DHT22;13431;51.352;6.412;2022-12-19T10:05:17;5.30;99.90
25536;DHT22;13431;51.352;6.412;2022-12-19T10:08:33;5.30;99.90
25536;DHT22;13431;51.352;6.412;2022-12-19T10:11:43;5.40;99.90
25536;DHT22;13431;51.352;6.412;2022-12-19T10:20:14;5.60;99.90
25536;DHT22;13431;51.352;6.412;2022-12-19T10:34:20;5.70;99.90
25536;DHT22;13431;51.352;6.412;2022-12-19T10:36:57;5.70;99.90
25536;DHT22;13431;51.352;6.412;2022-12-19T10:42:26;5.80;99.90
25536;DHT22;13431;51.352;6.412;2022-12-19T10:44:57;5.80;99.90
25536;DHT22;13431;51.352;6.412;2022-12-19T10:47:25;5.70;99.90
25536;DHT22;13431;51.352;6.412;2022-12-19T10:49:52;5.80;99.90
25536;DHT22;13431;51.352;6.412;2022-12-19T10:53:05;5.80;99.90
25536;DHT22;13431;51.352;6.412;2022-12-19T10:55:49;5.90;99.90
25536;DHT22;13431;51.352;6.412;2022-12-19T10:58:20;5.90;99.90
25536;DHT22;13431;51.352;6.412;2022-12-19T11:03:37;5.80;99.90
25536;DHT22;13431;51.352;6.412;2022-12-19T11:06:05;5.80;99.90
25536;DHT22;13431;51.352;6.412;2022-12-19T11:08:35;5.70;99.90
25536;DHT22;13431;51.352;6.412;2022-12-19T11:13:50;5.80;99.90
25536;DHT22;13431;51.352;6.412;2022-12-19T11:16:37;5.80;99.90
25536;DHT22;13431;51.352;6.412;2022-12-19T11:19:38;5.80;99.90
25536;DHT22;13431;51.352;6.412;2022-12-19T11:22:27;5.80;99.90
25536;DHT22;13431;51.352;6.412;2022-12-19T11:25:21;5.90;99.90
25536;DHT22;13431;51.352;6.412;2022-12-19T11:28:36;5.90;99.90
25536;DHT22;13431;51.352;6.412;2022-12-19T11:31:27;5.90;99.90
25536;DHT22;13431;51.352;6.412;2022-12-19T11:34:20;5.90;99.90
25536;DHT22;13431;51.352;6.412;2022-12-19T11:50:58;6.40;99.90
25536;DHT22;13431;51.352;6.412;2022-12-19T11:53:33;6.40;99.90
25536;DHT22;13431;51.352;6.412;2022-12-19T11:56:11;6.50;99.90
25536;DHT22;13431;51.352;6.412;2022-12-19T11:58:49;6.40;99.90
25536;DHT22;13431;51.352;6.412;2022-12-19T12:07:18;6.60;99.90
25536;DHT22;13431;51.352;6.412;2022-12-19T12:10:19;6.50;99.90
25536;DHT22;13431;51.352;6.412;2022-12-19T12:23:03;6.50;99.90
25536;DHT22;13431;51.352;6.412;2022-12-19T12:26:12;6.60;99.90
25536;DHT22;13431;51.352;6.412;2022-12-19T12:44:16;6.80;99.90
25536;DHT22;13431;51.352;6.412;2022-12-19T12:47:19;6.70;99.90
25536;DHT22;13431;51.352;6.412;2022-12-19T12:50:00;6.70;99.90
25536;DHT22;13431;51.352;6.412;2022-12-19T12:55:16;6.70;99.90
25536;DHT22;13431;51.352;6.412;2022-12-19T12:57:45;6.80;99.90
25536;DHT22;13431;51.352;6.412;2022-12-19T13:02:41;6.90;99.90
25536;DHT22;13431;51.352;6.412;2022-12-19T13:05:51;7.00;99.90
25536;DHT22;13431;51.352;6.412;2022-12-19T13:10:57;7.00;99.90
25536;DHT22;13431;51.352;6.412;2022-12-19T13:13:54;7.00;99.90
25536;DHT22;13431;51.352;6.412;2022-12-19T13:24:55;7.00;99.90
25536;DHT22;13431;51.352;6.412;2022-12-19T13:32:33;6.70;99.90
25536;DHT22;13431;51.352;6.412;2022-12-19T13:38:19;6.60;99.90
25536;DHT22;13431;51.352;6.412;2022-12-19T13:43:30;6.50;99.90
25536;DHT22;13431;51.352;6.412;2022-12-19T13:49:27;6.50;99.90
25536;DHT22;13431;51.352;6.412;2022-12-19T13:51:56;6.50;99.90
25536;DHT22;13431;51.352;6.412;2022-12-19T13:54:25;6.40;99.90
25536;DHT22;13431;51.352;6.412;2022-12-19T13:56:54;6.40;99.90
25536;DHT22;13431;51.352;6.412;2022-12-19T13:59:22;6.40;99.90
25536;DHT22;13431;51.352;6.412;2022-12-19T14:01:51;6.30;99.90
25536;DHT22;13431;51.352;6.412;2022-12-19T14:06:57;6.20;99.90
25536;DHT22;13431;51.352;6.412;2022-12-19T14:09:34;6.20;99.90
25536;DHT22;13431;51.352;6.412;2022-12-19T14:12:03;6.00;99.90
25536;DHT22;13431;51.352;6.412;2022-12-19T14:14:30;6.10;99.90
25536;DHT22;13431;51.352;6.412;2022-12-19T14:17:17;6.10;99.90
25536;DHT22;13431;51.352;6.412;2022-12-19T14:19:46;6.10;99.90
25536;DHT22;13431;51.352;6.412;2022-12-19T14:24:57;6.00;99.90
25536;DHT22;13431;51.352;6.412;2022-12-19T14:27:35;5.90;99.90
25536;DHT22;13431;51.352;6.412;2022-12-19T14:30:04;5.90;99.90
25536;DHT22;13431;51.352;6.412;2022-12-19T14:32:31;5.90;99.90
25536;DHT22;13431;51.352;6.412;2022-12-19T14:35:05;5.90;99.90
25536;DHT22;13431;51.352;6.412;2022-12-19T14:37:38;5.90;99.90
25536;DHT22;13431;51.352;6.412;2022-12-19T14:40:29;5.90;99.90
25536;DHT22;13431;51.352;6.412;2022-12-19T14:48:54;5.80;99.90
25536;DHT22;13431;51.352;6.412;2022-12-19T14:51:33;5.90;99.90
25536;DHT22;13431;51.352;6.412;2022-12-19T15:04:38;6.10;99.90
25536;DHT22;13431;51.352;6.412;2022-12-19T15:07:07;6.10;99.90
25536;DHT22;13431;51.352;6.412;2022-12-19T15:12:33;6.20;99.90
25536;DHT22;13431;51.352;6.412;2022-12-19T15:15:24;6.30;99.90
25536;DHT22;13431;51.352;6.412;2022-12-19T15:17:53;6.20;99.90
25536;DHT22;13431;51.352;6.412;2022-12-19T15:20:20;6.20;99.90
25536;DHT22;13431;51.352;6.412;2022-12-19T15:22:47;6.20;99.90
25536;DHT22;13431;51.352;6.412;2022-12-19T15:25:15;6.10;99.90
25536;DHT22;13431;51.352;6.412;2022-12-19T15:27:43;6.10;99.90
25536;DHT22;13431;51.352;6.412;2022-12-19T15:30:20;6.20;99.90
25536;DHT22;13431;51.352;6.412;2022-12-19T15:32:47;6.10;99.90
25536;DHT22;13431;51.352;6.412;2022-12-19T15:35:15;6.20;99.90
25536;DHT22;13431;51.352;6.412;2022-12-19T15:37:42;6.20;99.90
25536;DHT22;13431;51.352;6.412;2022-12-19T15:40:17;6.20;99.90
25536;DHT22;13431;51.352;6.412;2022-12-19T15:42:55;6.20;99.90
25536;DHT22;13431;51.352;6.412;2022-12-19T15:45:23;6.20;99.90
25536;DHT22;13431;51.352;6.412;2022-12-19T15:47:50;6.10;99.90
25536;DHT22;13431;51.352;6.412;2022-12-19T15:50:21;6.20;99.90
25536;DHT22;13431;51.352;6.412;2022-12-19T15:52:50;6.20;99.90
25536;DHT22;13431;51.352;6.412;2022-12-19T15:55:19;6.20;99.90
25536;DHT22;13431;51.352;6.412;2022-12-19T15:57:56;6.20;99.90
25536;DHT22;13431;51.352;6.412;2022-12-19T16:00:26;6.20;99.90
25536;DHT22;13431;51.352;6.412;2022-12-19T16:02:55;6.10;99.90
25536;DHT22;13431;51.352;6.412;2022-12-19T16:05:42;6.10;99.90
25536;DHT22;13431;51.352;6.412;2022-12-19T16:08:19;6.10;99.90
25536;DHT22;13431;51.352;6.412;2022-12-19T16:10:51;6.00;99.90
25536;DHT22;13431;51.352;6.412;2022-12-19T16:13:30;6.00;99.90
25536;DHT22;13431;51.352;6.412;2022-12-19T16:15:58;6.00;99.90
25536;DHT22;13431;51.352;6.412;2022-12-19T16:18:25;6.00;99.90
25536;DHT22;13431;51.352;6.412;2022-12-19T16:20:53;6.00;99.90
25536;DHT22;13431;51.352;6.412;2022-12-19T16:23:20;5.90;99.90
25536;DHT22;13431;51.352;6.412;2022-12-19T16:25:51;5.80;99.90
25536;DHT22;13431;51.352;6.412;2022-12-19T16:28:27;5.80;99.90
25536;DHT22;13431;51.352;6.412;2022-12-19T16:30:56;5.70;99.90
25536;DHT22;13431;51.352;6.412;2022-12-19T16:33:26;5.80;99.90
25536;DHT22;13431;51.352;6.412;2022-12-19T16:35:56;5.80;99.90
25536;DHT22;13431;51.352;6.412;2022-12-19T16:38:33;5.90;99.90
25536;DHT22;13431;51.352;6.412;2022-12-19T16:41:01;5.90;99.90
25536;DHT22;13431;51.352;6.412;2022-12-19T16:43:29;5.90;99.90
25536;DHT22;13431;51.352;6.412;2022-12-19T16:45:58;6.00;99.90
25536;DHT22;13431;51.352;6.412;2022-12-19T16:48:47;6.00;99.90
25536;DHT22;13431;51.352;6.412;2022-12-19T16:51:19;6.00;99.90
25536;DHT22;13431;51.352;6.412;2022-12-19T16:53:47;6.10;99.90
25536;DHT22;13431;51.352;6.412;2022-12-19T16:56:31;6.10;99.90
25536;DHT22;13431;51.352;6.412;2022-12-19T16:59:02;6.10;99.90
25536;DHT22;13431;51.352;6.412;2022-12-19T17:01:30;6.10;99.90
25536;DHT22;13431;51.352;6.412;2022-12-19T17:03:58;6.10;99.90
25536;DHT22;13431;51.352;6.412;2022-12-19T17:06:25;6.20;99.90
25536;DHT22;13431;51.352;6.412;2022-12-19T17:08:52;6.20;99.90
25536;DHT22;13431;51.352;6.412;2022-12-19T17:11:22;6.20;99.90
25536;DHT22;13431;51.352;6.412;2022-12-19T17:13:53;6.20;99.90
25536;DHT22;13431;51.352;6.412;2022-12-19T17:16:21;6.20;99.90
25536;DHT22;13431;51.352;6.412;2022-12-19T17:18:49;6.20;99.90
25536;DHT22;13431;51.352;6.412;2022-12-19T17:21:19;6.20;99.90
25536;DHT22;13431;51.352;6.412;2022-12-19T17:23:48;6.30;99.90
25536;DHT22;13431;51.352;6.412;2022-12-19T17:26:16;6.20;99.90
25536;DHT22;13431;51.352;6.412;2022-12-19T17:28:44;6.20;99.90
25536;DHT22;13431;51.352;6.412;2022-12-19T17:31:27;6.20;99.90
25536;DHT22;13431;51.352;6.412;2022-12-19T17:33:55;6.30;99.90
25536;DHT22;13431;51.352;6.412;2022-12-19T17:36:26;6.30;99.90
25536;DHT22;13431;51.352;6.412;2022-12-19T17:39:37;6.30;99.90
25536;DHT22;13431;51.352;6.412;2022-12-19T17:45:04;6.30;99.90
25536;DHT22;13431;51.352;6.412;2022-12-19T17:47:31;6.30;99.90
25536;DHT22;13431;51.352;6.412;2022-12-19T17:49:59;6.30;99.90
25536;DHT22;13431;51.352;6.412;2022-12-19T17:52:26;6.30;99.90
25536;DHT22;13431;51.352;6.412;2022-12-19T17:54:53;6.40;99.90
25536;DHT22;13431;51.352;6.412;2022-12-19T17:57:21;6.40;99.90
25536;DHT22;13431;51.352;6.412;2022-12-19T17:59:48;6.50;99.90
25536;DHT22;13431;51.352;6.412;2022-12-19T18:02:22;6.50;99.90
25536;DHT22;13431;51.352;6.412;2022-12-19T18:04:50;6.60;99.90
25536;DHT22;13431;51.352;6.412;2022-12-19T18:07:18;6.60;99.90
25536;DHT22;13431;51.352;6.412;2022-12-19T18:09:45;6.70;99.90
25536;DHT22;13431;51.352;6.412;2022-12-19T18:12:13;6.60;99.90
25536;DHT22;13431;51.352;6.412;2022-12-19T18:14:40;6.70;99.90
25536;DHT22;13431;51.352;6.412;2022-12-19T18:17:10;6.70;99.90
25536;DHT22;13431;51.352;6.412;2022-12-19T18:19:38;6.70;99.90
25536;DHT22;13431;51.352;6.412;2022-12-19T18:22:13;6.70;99.90
25536;DHT22;13431;51.352;6.412;2022-12-19T18:24:40;6.70;99.90
25536;DHT22;13431;51.352;6.412;2022-12-19T18:27:09;6.70;99.90
25536;DHT22;13431;51.352;6.412;2022-12-19T18:29:36;6.70;99.90
25536;DHT22;13431;51.352;6.412;2022-12-19T18:32:04;6.80;99.90
25536;DHT22;13431;51.352;6.412;2022-12-19T18:34:32;7.00;99.90
25536;DHT22;13431;51.352;6.412;2022-12-19T18:37:00;7.00;99.90
25536;DHT22;13431;51.352;6.412;2022-12-19T18:39:28;7.00;99.90
25536;DHT22;13431;51.352;6.412;2022-12-19T18:41:58;7.00;99.90
25536;DHT22;13431;51.352;6.412;2022-12-19T18:44:25;7.10;99.90
25536;DHT22;13431;51.352;6.412;2022-12-19T18:46:52;7.10;99.90
25536;DHT22;13431;51.352;6.412;2022-12-19T18:49:20;7.20;99.90
25536;DHT22;13431;51.352;6.412;2022-12-19T18:51:48;7.20;99.90
25536;DHT22;13431;51.352;6.412;2022-12-19T18:54:18;7.20;99.90
25536;DHT22;13431;51.352;6.412;2022-12-19T18:56:45;7.30;99.90
25536;DHT22;13431;51.352;6.412;2022-12-19T18:59:13;7.30;99.90
25536;DHT22;13431;51.352;6.412;2022-12-19T19:01:42;7.40;99.90
25536;DHT22;13431;51.352;6.412;2022-12-19T19:04:12;7.40;99.90
25536;DHT22;13431;51.352;6.412;2022-12-19T19:06:40;7.40;99.90
25536;DHT22;13431;51.352;6.412;2022-12-19T19:09:18;7.30;99.90
25536;DHT22;13431;51.352;6.412;2022-12-19T19:11:53;7.30;99.90
25536;DHT22;13431;51.352;6.412;2022-12-19T19:14:20;7.20;99.90
25536;DHT22;13431;51.352;6.412;2022-12-19T19:16:48;7.30;99.90